< < Back
Terminal Aerodrome Forecast


Current Version              Previous Versions:   1  2  3  4  5  6  7  8  9  

Terminal Aerodrome Forecast

495
FTAK31 PAJN 291137
TAFAHN
TAF
PAHN 291137Z 2912/3012 10007KT P6SM VCSH SCT014 SCT050 OVC070
      TEMPO 2912/2916 -SHRA BKN012 OVC050
     FM291600 09006KT P6SM VCSH BKN015 OVC030
     FM292100 12010KT P6SM SCT025 BKN050 OVC070
     FM300300 10005KT P6SM BKN050 BKN070
      AMD LTD TO CLD VIS AND WIND=

Latest METAR

508
SAUS70 KWBC 291400
MTRAHN
METAR KAHN 291351Z 29008KT 10SM FEW021 28/22 A3003 RMK AO2 SLP159
T02830222


USA.gov is the U.S. government's official web portal to all federal, state and local government web resources and services.